sensor_id;sensor_type;location;lat;lon;timestamp;temperature;humidity
21171;DHT22;10743;52.160;20.910;2023-03-01T00:01:38;15.40;31.70
21171;DHT22;10743;52.160;20.910;2023-03-01T00:04:05;15.40;31.80
21171;DHT22;10743;52.160;20.910;2023-03-01T00:06:32;15.40;31.80
21171;DHT22;10743;52.160;20.910;2023-03-01T00:08:59;15.40;31.80
21171;DHT22;10743;52.160;20.910;2023-03-01T00:11:31;15.40;31.70
21171;DHT22;10743;52.160;20.910;2023-03-01T00:14:01;15.40;31.80
21171;DHT22;10743;52.160;20.910;2023-03-01T00:16:31;15.40;31.80
21171;DHT22;10743;52.160;20.910;2023-03-01T00:19:15;15.40;31.80
21171;DHT22;10743;52.160;20.910;2023-03-01T00:21:44;15.50;31.80
21171;DHT22;10743;52.160;20.910;2023-03-01T00:24:11;15.40;31.80
21171;DHT22;10743;52.160;20.910;2023-03-01T00:26:38;15.40;31.80
21171;DHT22;10743;52.160;20.910;2023-03-01T00:29:05;15.50;31.80
21171;DHT22;10743;52.160;20.910;2023-03-01T00:31:33;15.50;31.70
21171;DHT22;10743;52.160;20.910;2023-03-01T00:34:04;15.50;32.40
21171;DHT22;10743;52.160;20.910;2023-03-01T00:36:34;15.50;31.70
21171;DHT22;10743;52.160;20.910;2023-03-01T00:39:04;15.60;31.70
21171;DHT22;10743;52.160;20.910;2023-03-01T00:41:34;15.50;31.60
21171;DHT22;10743;52.160;20.910;2023-03-01T00:44:01;15.60;31.60
21171;DHT22;10743;52.160;20.910;2023-03-01T00:46:29;15.60;31.60
21171;DHT22;10743;52.160;20.910;2023-03-01T00:48:57;15.60;31.50
21171;DHT22;10743;52.160;20.910;2023-03-01T00:51:26;15.50;31.50
21171;DHT22;10743;52.160;20.910;2023-03-01T00:53:57;15.60;31.60
21171;DHT22;10743;52.160;20.910;2023-03-01T00:56:27;15.50;31.50
21171;DHT22;10743;52.160;20.910;2023-03-01T00:58:55;15.50;31.50
21171;DHT22;10743;52.160;20.910;2023-03-01T01:01:25;15.50;31.60
21171;DHT22;10743;52.160;20.910;2023-03-01T01:03:58;15.50;31.60
21171;DHT22;10743;52.160;20.910;2023-03-01T01:06:30;15.50;31.60
21171;DHT22;10743;52.160;20.910;2023-03-01T01:09:03;15.50;31.60
21171;DHT22;10743;52.160;20.910;2023-03-01T01:11:32;15.50;31.60
21171;DHT22;10743;52.160;20.910;2023-03-01T01:14:02;15.50;31.60
21171;DHT22;10743;52.160;20.910;2023-03-01T01:16:30;15.50;31.60
21171;DHT22;10743;52.160;20.910;2023-03-01T01:18:57;15.50;31.60
21171;DHT22;10743;52.160;20.910;2023-03-01T01:21:26;15.50;31.70
21171;DHT22;10743;52.160;20.910;2023-03-01T01:23:54;15.50;31.60
21171;DHT22;10743;52.160;20.910;2023-03-01T01:26:25;15.50;31.70
21171;DHT22;10743;52.160;20.910;2023-03-01T01:28:57;15.50;31.80
21171;DHT22;10743;52.160;20.910;2023-03-01T01:31:24;15.50;31.70
21171;DHT22;10743;52.160;20.910;2023-03-01T01:33:53;15.50;31.80
21171;DHT22;10743;52.160;20.910;2023-03-01T01:36:21;15.50;31.80
21171;DHT22;10743;52.160;20.910;2023-03-01T01:38:48;15.50;31.70
21171;DHT22;10743;52.160;20.910;2023-03-01T01:41:15;15.50;31.70
21171;DHT22;10743;52.160;20.910;2023-03-01T01:43:48;15.40;31.70
21171;DHT22;10743;52.160;20.910;2023-03-01T01:46:38;15.40;31.80
21171;DHT22;10743;52.160;20.910;2023-03-01T01:49:20;15.40;31.80
21171;DHT22;10743;52.160;20.910;2023-03-01T01:52:00;15.40;31.80
21171;DHT22;10743;52.160;20.910;2023-03-01T01:54:42;15.40;31.80
21171;DHT22;10743;52.160;20.910;2023-03-01T01:57:41;15.40;31.80
21171;DHT22;10743;52.160;20.910;2023-03-01T02:00:18;15.30;31.70
21171;DHT22;10743;52.160;20.910;2023-03-01T02:02:49;15.30;31.70
21171;DHT22;10743;52.160;20.910;2023-03-01T02:05:33;15.30;31.60
21171;DHT22;10743;52.160;20.910;2023-03-01T02:08:04;15.30;31.70
21171;DHT22;10743;52.160;20.910;2023-03-01T02:10:33;15.20;31.50
21171;DHT22;10743;52.160;20.910;2023-03-01T02:13:03;15.20;31.70
21171;DHT22;10743;52.160;20.910;2023-03-01T02:15:35;15.20;31.70
21171;DHT22;10743;52.160;20.910;2023-03-01T02:18:04;15.20;31.80
21171;DHT22;10743;52.160;20.910;2023-03-01T02:23:25;15.20;31.80
21171;DHT22;10743;52.160;20.910;2023-03-01T02:28:31;15.20;31.70
21171;DHT22;10743;52.160;20.910;2023-03-01T02:30:59;15.20;31.70
21171;DHT22;10743;52.160;20.910;2023-03-01T02:33:46;15.20;31.70
21171;DHT22;10743;52.160;20.910;2023-03-01T02:36:29;15.10;31.90
21171;DHT22;10743;52.160;20.910;2023-03-01T02:39:02;15.10;31.70
21171;DHT22;10743;52.160;20.910;2023-03-01T02:41:36;15.10;31.80
21171;DHT22;10743;52.160;20.910;2023-03-01T02:44:05;15.10;31.70
21171;DHT22;10743;52.160;20.910;2023-03-01T02:46:32;15.10;31.70
21171;DHT22;10743;52.160;20.910;2023-03-01T02:49:00;15.10;31.80
21171;DHT22;10743;52.160;20.910;2023-03-01T02:54:34;15.10;31.80
21171;DHT22;10743;52.160;20.910;2023-03-01T02:57:07;15.10;32.00
21171;DHT22;10743;52.160;20.910;2023-03-01T02:59:36;15.10;31.90
21171;DHT22;10743;52.160;20.910;2023-03-01T03:02:26;15.00;32.00
21171;DHT22;10743;52.160;20.910;2023-03-01T03:05:16;15.00;32.00
21171;DHT22;10743;52.160;20.910;2023-03-01T03:07:46;15.00;32.10
21171;DHT22;10743;52.160;20.910;2023-03-01T03:10:21;14.90;32.10
21171;DHT22;10743;52.160;20.910;2023-03-01T03:12:52;14.90;32.10
21171;DHT22;10743;52.160;20.910;2023-03-01T03:15:40;14.90;32.20
21171;DHT22;10743;52.160;20.910;2023-03-01T03:18:11;15.00;32.30
21171;DHT22;10743;52.160;20.910;2023-03-01T03:20:41;15.00;32.20
21171;DHT22;10743;52.160;20.910;2023-03-01T03:23:09;15.00;32.10
21171;DHT22;10743;52.160;20.910;2023-03-01T03:25:36;15.00;32.20
21171;DHT22;10743;52.160;20.910;2023-03-01T03:28:05;15.00;32.20
21171;DHT22;10743;52.160;20.910;2023-03-01T03:30:39;14.90;32.30
21171;DHT22;10743;52.160;20.910;2023-03-01T03:33:08;15.00;32.40
21171;DHT22;10743;52.160;20.910;2023-03-01T03:35:44;15.00;32.20
21171;DHT22;10743;52.160;20.910;2023-03-01T03:38:14;15.00;32.30
21171;DHT22;10743;52.160;20.910;2023-03-01T03:40:47;15.00;32.20
21171;DHT22;10743;52.160;20.910;2023-03-01T03:43:20;15.00;32.20
21171;DHT22;10743;52.160;20.910;2023-03-01T03:45:50;15.00;32.20
21171;DHT22;10743;52.160;20.910;2023-03-01T03:48:18;15.00;32.30
21171;DHT22;10743;52.160;20.910;2023-03-01T03:51:03;15.10;32.40
21171;DHT22;10743;52.160;20.910;2023-03-01T03:53:33;15.10;32.30
21171;DHT22;10743;52.160;20.910;2023-03-01T03:56:00;15.10;32.20
21171;DHT22;10743;52.160;20.910;2023-03-01T03:58:27;15.10;32.30
21171;DHT22;10743;52.160;20.910;2023-03-01T04:00:56;15.10;32.20
21171;DHT22;10743;52.160;20.910;2023-03-01T04:03:25;15.10;32.30
21171;DHT22;10743;52.160;20.910;2023-03-01T04:05:53;15.10;32.30
21171;DHT22;10743;52.160;20.910;2023-03-01T04:08:22;15.10;32.30
21171;DHT22;10743;52.160;20.910;2023-03-01T04:10:52;15.10;32.40
21171;DHT22;10743;52.160;20.910;2023-03-01T04:13:23;15.20;32.30
21171;DHT22;10743;52.160;20.910;2023-03-01T04:15:53;15.20;32.40
21171;DHT22;10743;52.160;20.910;2023-03-01T04:18:22;15.20;32.40
21171;DHT22;10743;52.160;20.910;2023-03-01T04:20:50;15.20;32.40
21171;DHT22;10743;52.160;20.910;2023-03-01T04:23:20;15.20;32.30
21171;DHT22;10743;52.160;20.910;2023-03-01T04:25:58;15.30;32.30
21171;DHT22;10743;52.160;20.910;2023-03-01T04:28:37;15.30;32.10
21171;DHT22;10743;52.160;20.910;2023-03-01T04:31:13;15.30;32.10
21171;DHT22;10743;52.160;20.910;2023-03-01T04:36:20;15.30;32.20
21171;DHT22;10743;52.160;20.910;2023-03-01T04:38:50;15.40;32.20
21171;DHT22;10743;52.160;20.910;2023-03-01T04:41:20;15.50;32.20
21171;DHT22;10743;52.160;20.910;2023-03-01T04:43:49;15.50;32.20
21171;DHT22;10743;52.160;20.910;2023-03-01T04:46:18;15.60;32.10
21171;DHT22;10743;52.160;20.910;2023-03-01T04:48:46;15.60;32.10
21171;DHT22;10743;52.160;20.910;2023-03-01T04:51:14;15.60;32.10
21171;DHT22;10743;52.160;20.910;2023-03-01T04:53:43;15.70;32.10
21171;DHT22;10743;52.160;20.910;2023-03-01T04:56:11;15.70;31.90
21171;DHT22;10743;52.160;20.910;2023-03-01T04:58:40;15.70;31.80
21171;DHT22;10743;52.160;20.910;2023-03-01T05:01:12;15.80;31.70
21171;DHT22;10743;52.160;20.910;2023-03-01T05:03:47;15.80;31.60
21171;DHT22;10743;52.160;20.910;2023-03-01T05:06:16;15.90;31.50
21171;DHT22;10743;52.160;20.910;2023-03-01T05:08:44;15.80;31.40
21171;DHT22;10743;52.160;20.910;2023-03-01T05:11:12;15.90;31.50
21171;DHT22;10743;52.160;20.910;2023-03-01T05:13:40;15.80;31.40
21171;DHT22;10743;52.160;20.910;2023-03-01T05:16:08;15.90;31.40
21171;DHT22;10743;52.160;20.910;2023-03-01T05:18:39;15.90;31.40
21171;DHT22;10743;52.160;20.910;2023-03-01T05:21:12;15.90;31.20
21171;DHT22;10743;52.160;20.910;2023-03-01T05:23:43;15.90;31.30
21171;DHT22;10743;52.160;20.910;2023-03-01T05:26:10;15.90;31.30
21171;DHT22;10743;52.160;20.910;2023-03-01T05:28:54;15.80;31.40
21171;DHT22;10743;52.160;20.910;2023-03-01T05:31:26;15.90;31.50
21171;DHT22;10743;52.160;20.910;2023-03-01T05:33:53;15.90;31.40
21171;DHT22;10743;52.160;20.910;2023-03-01T05:36:20;15.80;31.40
21171;DHT22;10743;52.160;20.910;2023-03-01T05:38:47;15.80;32.10
21171;DHT22;10743;52.160;20.910;2023-03-01T05:41:15;15.90;31.40
21171;DHT22;10743;52.160;20.910;2023-03-01T05:43:43;15.90;31.50
21171;DHT22;10743;52.160;20.910;2023-03-01T05:46:12;15.90;31.40
21171;DHT22;10743;52.160;20.910;2023-03-01T05:48:42;15.90;31.50
21171;DHT22;10743;52.160;20.910;2023-03-01T05:51:09;15.90;31.50
21171;DHT22;10743;52.160;20.910;2023-03-01T05:53:36;15.80;31.40
21171;DHT22;10743;52.160;20.910;2023-03-01T05:56:04;15.90;31.50
21171;DHT22;10743;52.160;20.910;2023-03-01T05:58:31;15.90;31.50
21171;DHT22;10743;52.160;20.910;2023-03-01T06:00:58;15.90;31.60
21171;DHT22;10743;52.160;20.910;2023-03-01T06:03:26;15.90;31.50
21171;DHT22;10743;52.160;20.910;2023-03-01T06:05:57;15.90;31.50
21171;DHT22;10743;52.160;20.910;2023-03-01T06:08:25;16.00;31.50
21171;DHT22;10743;52.160;20.910;2023-03-01T06:10:54;16.00;31.50
21171;DHT22;10743;52.160;20.910;2023-03-01T06:13:22;16.00;31.50
21171;DHT22;10743;52.160;20.910;2023-03-01T06:15:50;16.10;31.70
21171;DHT22;10743;52.160;20.910;2023-03-01T06:18:17;16.10;31.60
21171;DHT22;10743;52.160;20.910;2023-03-01T06:20:44;16.10;31.70
21171;DHT22;10743;52.160;20.910;2023-03-01T06:23:11;16.10;31.70
21171;DHT22;10743;52.160;20.910;2023-03-01T06:25:38;16.20;31.70
21171;DHT22;10743;52.160;20.910;2023-03-01T06:28:05;16.20;31.70
21171;DHT22;10743;52.160;20.910;2023-03-01T06:30:33;16.20;31.60
21171;DHT22;10743;52.160;20.910;2023-03-01T06:33:00;16.30;31.60
21171;DHT22;10743;52.160;20.910;2023-03-01T06:35:30;16.30;31.60
21171;DHT22;10743;52.160;20.910;2023-03-01T06:38:02;16.40;31.60
21171;DHT22;10743;52.160;20.910;2023-03-01T06:40:31;16.40;31.60
21171;DHT22;10743;52.160;20.910;2023-03-01T06:42:58;16.50;31.60
21171;DHT22;10743;52.160;20.910;2023-03-01T06:45:26;16.50;31.50
21171;DHT22;10743;52.160;20.910;2023-03-01T06:48:01;16.60;31.60
21171;DHT22;10743;52.160;20.910;2023-03-01T06:50:33;16.60;31.50
21171;DHT22;10743;52.160;20.910;2023-03-01T06:53:01;16.60;31.50
21171;DHT22;10743;52.160;20.910;2023-03-01T06:55:28;16.60;31.40
21171;DHT22;10743;52.160;20.910;2023-03-01T06:57:56;16.60;31.50
21171;DHT22;10743;52.160;20.910;2023-03-01T07:00:24;16.60;31.50
21171;DHT22;10743;52.160;20.910;2023-03-01T07:02:53;16.70;31.50
21171;DHT22;10743;52.160;20.910;2023-03-01T07:05:21;16.70;31.50
21171;DHT22;10743;52.160;20.910;2023-03-01T07:07:48;16.70;31.60
21171;DHT22;10743;52.160;20.910;2023-03-01T07:10:15;16.70;31.50
21171;DHT22;10743;52.160;20.910;2023-03-01T07:12:42;16.80;31.60
21171;DHT22;10743;52.160;20.910;2023-03-01T07:15:10;16.80;31.50
21171;DHT22;10743;52.160;20.910;2023-03-01T07:17:37;16.90;31.50
21171;DHT22;10743;52.160;20.910;2023-03-01T07:20:05;16.90;31.50
21171;DHT22;10743;52.160;20.910;2023-03-01T07:22:32;16.90;31.50
21171;DHT22;10743;52.160;20.910;2023-03-01T07:24:59;17.00;31.50
21171;DHT22;10743;52.160;20.910;2023-03-01T07:27:26;17.00;31.50
21171;DHT22;10743;52.160;20.910;2023-03-01T07:29:53;17.10;31.40
21171;DHT22;10743;52.160;20.910;2023-03-01T07:32:20;17.10;31.30
21171;DHT22;10743;52.160;20.910;2023-03-01T07:34:47;17.10;31.30
21171;DHT22;10743;52.160;20.910;2023-03-01T07:37:14;17.20;31.40
21171;DHT22;10743;52.160;20.910;2023-03-01T07:39:42;17.20;31.40
21171;DHT22;10743;52.160;20.910;2023-03-01T07:42:09;17.30;31.10
21171;DHT22;10743;52.160;20.910;2023-03-01T07:44:36;17.40;31.20
21171;DHT22;10743;52.160;20.910;2023-03-01T07:47:04;17.40;31.20
21171;DHT22;10743;52.160;20.910;2023-03-01T07:49:31;17.50;31.10
21171;DHT22;10743;52.160;20.910;2023-03-01T07:51:58;17.60;31.90
21171;DHT22;10743;52.160;20.910;2023-03-01T07:54:25;18.60;31.50
21171;DHT22;10743;52.160;20.910;2023-03-01T07:56:52;17.80;31.10
21171;DHT22;10743;52.160;20.910;2023-03-01T07:59:21;17.80;31.00
21171;DHT22;10743;52.160;20.910;2023-03-01T08:01:50;17.80;31.00
21171;DHT22;10743;52.160;20.910;2023-03-01T08:04:17;17.90;30.90
21171;DHT22;10743;52.160;20.910;2023-03-01T08:06:44;18.00;30.70
21171;DHT22;10743;52.160;20.910;2023-03-01T08:09:11;18.10;30.70
21171;DHT22;10743;52.160;20.910;2023-03-01T08:11:38;18.20;30.60
21171;DHT22;10743;52.160;20.910;2023-03-01T08:14:06;18.30;31.20
21171;DHT22;10743;52.160;20.910;2023-03-01T08:16:34;18.30;30.60
21171;DHT22;10743;52.160;20.910;2023-03-01T08:19:07;18.30;30.70
21171;DHT22;10743;52.160;20.910;2023-03-01T08:21:35;18.40;30.50
21171;DHT22;10743;52.160;20.910;2023-03-01T08:24:03;18.50;30.40
21171;DHT22;10743;52.160;20.910;2023-03-01T08:26:33;18.50;30.20
21171;DHT22;10743;52.160;20.910;2023-03-01T08:29:00;18.60;30.30
21171;DHT22;10743;52.160;20.910;2023-03-01T08:31:34;18.70;30.40
21171;DHT22;10743;52.160;20.910;2023-03-01T08:34:06;18.70;30.30
21171;DHT22;10743;52.160;20.910;2023-03-01T08:36:38;18.80;30.10
21171;DHT22;10743;52.160;20.910;2023-03-01T08:39:08;18.80;30.10
21171;DHT22;10743;52.160;20.910;2023-03-01T08:41:38;18.90;30.00
21171;DHT22;10743;52.160;20.910;2023-03-01T08:44:06;18.90;30.00
21171;DHT22;10743;52.160;20.910;2023-03-01T08:46:36;19.00;29.90
21171;DHT22;10743;52.160;20.910;2023-03-01T08:49:13;19.00;29.90
21171;DHT22;10743;52.160;20.910;2023-03-01T08:51:42;19.20;29.70
21171;DHT22;10743;52.160;20.910;2023-03-01T08:54:15;19.20;29.70
21171;DHT22;10743;52.160;20.910;2023-03-01T08:56:46;19.30;29.80
21171;DHT22;10743;52.160;20.910;2023-03-01T08:59:15;19.40;29.90
21171;DHT22;10743;52.160;20.910;2023-03-01T09:01:43;19.40;29.80
21171;DHT22;10743;52.160;20.910;2023-03-01T09:04:11;19.50;29.80
21171;DHT22;10743;52.160;20.910;2023-03-01T09:06:39;19.50;29.60
21171;DHT22;10743;52.160;20.910;2023-03-01T09:09:10;19.60;30.20
21171;DHT22;10743;52.160;20.910;2023-03-01T09:11:42;19.60;29.70
21171;DHT22;10743;52.160;20.910;2023-03-01T09:14:11;19.70;29.70
21171;DHT22;10743;52.160;20.910;2023-03-01T09:16:39;19.80;29.60
21171;DHT22;10743;52.160;20.910;2023-03-01T09:19:06;19.90;29.40
21171;DHT22;10743;52.160;20.910;2023-03-01T09:21:33;20.00;29.50
21171;DHT22;10743;52.160;20.910;2023-03-01T09:24:13;20.00;29.40
21171;DHT22;10743;52.160;20.910;2023-03-01T09:26:42;20.10;29.40
21171;DHT22;10743;52.160;20.910;2023-03-01T09:29:15;20.10;29.60
21171;DHT22;10743;52.160;20.910;2023-03-01T09:31:43;20.20;29.50
21171;DHT22;10743;52.160;20.910;2023-03-01T09:34:10;20.20;29.40
21171;DHT22;10743;52.160;20.910;2023-03-01T09:36:37;20.30;29.40
21171;DHT22;10743;52.160;20.910;2023-03-01T09:39:05;20.40;29.50
21171;DHT22;10743;52.160;20.910;2023-03-01T09:41:45;20.50;29.30
21171;DHT22;10743;52.160;20.910;2023-03-01T09:44:27;20.60;29.20
21171;DHT22;10743;52.160;20.910;2023-03-01T09:46:59;20.60;29.20
21171;DHT22;10743;52.160;20.910;2023-03-01T09:52:42;20.70;29.00
21171;DHT22;10743;52.160;20.910;2023-03-01T09:55:16;20.70;29.10
21171;DHT22;10743;52.160;20.910;2023-03-01T10:00:47;20.80;29.20
21171;DHT22;10743;52.160;20.910;2023-03-01T10:03:27;21.00;29.00
21171;DHT22;10743;52.160;20.910;2023-03-01T10:06:38;21.00;29.00
21171;DHT22;10743;52.160;20.910;2023-03-01T10:09:17;21.00;29.20
21171;DHT22;10743;52.160;20.910;2023-03-01T10:11:55;21.10;29.10
21171;DHT22;10743;52.160;20.910;2023-03-01T10:14:36;21.20;29.00
21171;DHT22;10743;52.160;20.910;2023-03-01T10:17:53;21.30;28.60
21171;DHT22;10743;52.160;20.910;2023-03-01T10:20:29;21.40;28.90
21171;DHT22;10743;52.160;20.910;2023-03-01T10:23:34;21.40;28.80
21171;DHT22;10743;52.160;20.910;2023-03-01T10:29:10;21.60;28.70
21171;DHT22;10743;52.160;20.910;2023-03-01T10:31:47;21.50;28.80
21171;DHT22;10743;52.160;20.910;2023-03-01T10:36:51;21.60;28.90
21171;DHT22;10743;52.160;20.910;2023-03-01T10:39:22;21.60;28.80
21171;DHT22;10743;52.160;20.910;2023-03-01T10:41:57;21.70;28.60
21171;DHT22;10743;52.160;20.910;2023-03-01T10:44:44;21.70;28.70
21171;DHT22;10743;52.160;20.910;2023-03-01T10:47:31;21.70;28.50
21171;DHT22;10743;52.160;20.910;2023-03-01T10:50:02;21.70;28.80
21171;DHT22;10743;52.160;20.910;2023-03-01T10:52:40;21.70;28.60
21171;DHT22;10743;52.160;20.910;2023-03-01T10:58:16;21.90;28.50
21171;DHT22;10743;52.160;20.910;2023-03-01T11:03:25;22.00;28.50
21171;DHT22;10743;52.160;20.910;2023-03-01T11:06:04;21.90;28.50
21171;DHT22;10743;52.160;20.910;2023-03-01T11:08:41;21.90;28.40
21171;DHT22;10743;52.160;20.910;2023-03-01T11:14:06;22.00;28.90
21171;DHT22;10743;52.160;20.910;2023-03-01T11:17:27;22.20;28.70
21171;DHT22;10743;52.160;20.910;2023-03-01T11:25:30;22.40;28.40
21171;DHT22;10743;52.160;20.910;2023-03-01T11:28:04;22.50;28.50
21171;DHT22;10743;52.160;20.910;2023-03-01T11:30:49;22.50;28.60
21171;DHT22;10743;52.160;20.910;2023-03-01T11:34:03;22.50;28.50
21171;DHT22;10743;52.160;20.910;2023-03-01T11:36:53;22.60;28.50
21171;DHT22;10743;52.160;20.910;2023-03-01T11:39:33;22.70;28.30
21171;DHT22;10743;52.160;20.910;2023-03-01T11:42:06;22.80;28.50
21171;DHT22;10743;52.160;20.910;2023-03-01T11:44:47;22.80;28.10
21171;DHT22;10743;52.160;20.910;2023-03-01T11:50:13;22.90;28.20
21171;DHT22;10743;52.160;20.910;2023-03-01T12:01:51;23.10;27.90
21171;DHT22;10743;52.160;20.910;2023-03-01T12:13:59;23.30;28.60
21171;DHT22;10743;52.160;20.910;2023-03-01T12:30:42;23.50;27.90
21171;DHT22;10743;52.160;20.910;2023-03-01T12:42:12;23.30;28.20
21171;DHT22;10743;52.160;20.910;2023-03-01T12:45:02;23.30;28.30
21171;DHT22;10743;52.160;20.910;2023-03-01T12:51:08;23.30;28.60
21171;DHT22;10743;52.160;20.910;2023-03-01T12:53:45;23.40;28.40
21171;DHT22;10743;52.160;20.910;2023-03-01T12:56:18;23.40;28.30
21171;DHT22;10743;52.160;20.910;2023-03-01T13:01:56;23.30;28.70
21171;DHT22;10743;52.160;20.910;2023-03-01T13:07:29;23.30;28.70
21171;DHT22;10743;52.160;20.910;2023-03-01T13:10:33;23.30;28.80
21171;DHT22;10743;52.160;20.910;2023-03-01T13:13:23;23.30;28.60
21171;DHT22;10743;52.160;20.910;2023-03-01T13:15:51;23.30;28.40
21171;DHT22;10743;52.160;20.910;2023-03-01T13:26:12;23.30;28.90
21171;DHT22;10743;52.160;20.910;2023-03-01T13:28:54;23.30;28.60
21171;DHT22;10743;52.160;20.910;2023-03-01T13:34:01;23.30;28.80
21171;DHT22;10743;52.160;20.910;2023-03-01T13:39:31;23.40;28.60
21171;DHT22;10743;52.160;20.910;2023-03-01T13:42:37;23.30;28.80
21171;DHT22;10743;52.160;20.910;2023-03-01T13:45:36;23.20;28.90
21171;DHT22;10743;52.160;20.910;2023-03-01T13:48:10;23.20;28.70
21171;DHT22;10743;52.160;20.910;2023-03-01T13:51:03;23.20;28.90
21171;DHT22;10743;52.160;20.910;2023-03-01T13:53:39;23.20;28.70
21171;DHT22;10743;52.160;20.910;2023-03-01T13:56:12;23.20;28.70
21171;DHT22;10743;52.160;20.910;2023-03-01T13:58:54;23.10;28.90
21171;DHT22;10743;52.160;20.910;2023-03-01T14:01:35;23.10;28.90
21171;DHT22;10743;52.160;20.910;2023-03-01T14:04:17;23.10;29.00
21171;DHT22;10743;52.160;20.910;2023-03-01T14:06:47;23.10;28.90
21171;DHT22;10743;52.160;20.910;2023-03-01T14:09:24;23.10;29.10
21171;DHT22;10743;52.160;20.910;2023-03-01T14:20:27;23.00;29.00
21171;DHT22;10743;52.160;20.910;2023-03-01T14:22:59;23.00;29.20
21171;DHT22;10743;52.160;20.910;2023-03-01T14:25:34;23.00;29.20
21171;DHT22;10743;52.160;20.910;2023-03-01T14:28:24;23.00;29.10
21171;DHT22;10743;52.160;20.910;2023-03-01T14:30:58;23.00;29.20
21171;DHT22;10743;52.160;20.910;2023-03-01T14:35:57;22.90;29.20
21171;DHT22;10743;52.160;20.910;2023-03-01T14:38:43;23.00;29.20
21171;DHT22;10743;52.160;20.910;2023-03-01T14:41:15;23.00;29.20
21171;DHT22;10743;52.160;20.910;2023-03-01T14:43:49;23.00;29.30
21171;DHT22;10743;52.160;20.910;2023-03-01T14:46:35;22.90;29.40
21171;DHT22;10743;52.160;20.910;2023-03-01T14:49:25;23.00;29.20
21171;DHT22;10743;52.160;20.910;2023-03-01T14:52:04;23.00;29.20
21171;DHT22;10743;52.160;20.910;2023-03-01T14:54:41;23.00;29.10
21171;DHT22;10743;52.160;20.910;2023-03-01T14:57:23;23.00;29.10
21171;DHT22;10743;52.160;20.910;2023-03-01T15:00:00;22.90;29.10
21171;DHT22;10743;52.160;20.910;2023-03-01T15:02:33;22.90;29.10
21171;DHT22;10743;52.160;20.910;2023-03-01T15:05:03;22.90;29.20
21171;DHT22;10743;52.160;20.910;2023-03-01T15:07:38;22.80;29.30
21171;DHT22;10743;52.160;20.910;2023-03-01T15:10:17;22.70;29.40
21171;DHT22;10743;52.160;20.910;2023-03-01T15:12:47;22.70;29.30
21171;DHT22;10743;52.160;20.910;2023-03-01T15:15:31;22.70;29.30
21171;DHT22;10743;52.160;20.910;2023-03-01T15:18:06;22.70;29.30
21171;DHT22;10743;52.160;20.910;2023-03-01T15:20:40;22.60;29.30
21171;DHT22;10743;52.160;20.910;2023-03-01T15:23:24;22.60;29.30
21171;DHT22;10743;52.160;20.910;2023-03-01T15:25:53;22.50;29.30
21171;DHT22;10743;52.160;20.910;2023-03-01T15:28:34;22.60;29.40
21171;DHT22;10743;52.160;20.910;2023-03-01T15:31:38;22.50;29.40
21171;DHT22;10743;52.160;20.910;2023-03-01T15:34:22;22.40;29.50
21171;DHT22;10743;52.160;20.910;2023-03-01T15:36:53;22.40;29.50
21171;DHT22;10743;52.160;20.910;2023-03-01T15:41:57;22.40;29.60
21171;DHT22;10743;52.160;20.910;2023-03-01T15:44:30;22.30;29.60
21171;DHT22;10743;52.160;20.910;2023-03-01T15:47:24;22.20;29.70
21171;DHT22;10743;52.160;20.910;2023-03-01T15:49:57;22.10;29.70
21171;DHT22;10743;52.160;20.910;2023-03-01T15:52:28;22.10;29.90
21171;DHT22;10743;52.160;20.910;2023-03-01T15:55:02;22.10;29.90
21171;DHT22;10743;52.160;20.910;2023-03-01T15:57:30;22.00;29.90
21171;DHT22;10743;52.160;20.910;2023-03-01T15:59:57;21.90;30.00
21171;DHT22;10743;52.160;20.910;2023-03-01T16:02:25;21.90;30.00
21171;DHT22;10743;52.160;20.910;2023-03-01T16:04:52;21.80;30.00
21171;DHT22;10743;52.160;20.910;2023-03-01T16:07:20;21.70;30.10
21171;DHT22;10743;52.160;20.910;2023-03-01T16:09:47;21.70;30.30
21171;DHT22;10743;52.160;20.910;2023-03-01T16:12:15;21.60;30.40
21171;DHT22;10743;52.160;20.910;2023-03-01T16:14:43;21.50;30.40
21171;DHT22;10743;52.160;20.910;2023-03-01T16:17:10;21.50;30.50
21171;DHT22;10743;52.160;20.910;2023-03-01T16:19:38;21.40;30.70
21171;DHT22;10743;52.160;20.910;2023-03-01T16:22:05;21.30;30.70
21171;DHT22;10743;52.160;20.910;2023-03-01T16:24:32;21.30;30.70
21171;DHT22;10743;52.160;20.910;2023-03-01T16:26:59;21.30;30.80
21171;DHT22;10743;52.160;20.910;2023-03-01T16:29:26;21.20;30.80
21171;DHT22;10743;52.160;20.910;2023-03-01T16:31:55;21.10;30.90
21171;DHT22;10743;52.160;20.910;2023-03-01T16:34:23;21.10;31.00
21171;DHT22;10743;52.160;20.910;2023-03-01T16:36:50;21.10;31.20
21171;DHT22;10743;52.160;20.910;2023-03-01T16:39:17;21.00;31.20
21171;DHT22;10743;52.160;20.910;2023-03-01T16:41:44;21.00;31.30
21171;DHT22;10743;52.160;20.910;2023-03-01T16:44:11;20.90;31.40
21171;DHT22;10743;52.160;20.910;2023-03-01T16:46:38;20.90;31.40
21171;DHT22;10743;52.160;20.910;2023-03-01T16:49:08;20.90;31.50
21171;DHT22;10743;52.160;20.910;2023-03-01T16:51:36;20.80;31.60
21171;DHT22;10743;52.160;20.910;2023-03-01T16:54:03;20.80;31.70
21171;DHT22;10743;52.160;20.910;2023-03-01T16:56:31;20.80;31.70
21171;DHT22;10743;52.160;20.910;2023-03-01T16:59:01;20.70;31.70
21171;DHT22;10743;52.160;20.910;2023-03-01T17:01:32;20.70;31.70
21171;DHT22;10743;52.160;20.910;2023-03-01T17:04:11;20.70;31.80
21171;DHT22;10743;52.160;20.910;2023-03-01T17:06:39;21.70;32.40
21171;DHT22;10743;52.160;20.910;2023-03-01T17:09:06;20.70;31.90
21171;DHT22;10743;52.160;20.910;2023-03-01T17:11:33;20.70;32.00
21171;DHT22;10743;52.160;20.910;2023-03-01T17:14:02;20.70;32.00
21171;DHT22;10743;52.160;20.910;2023-03-01T17:16:29;20.70;32.00
21171;DHT22;10743;52.160;20.910;2023-03-01T17:18:56;20.60;32.00
21171;DHT22;10743;52.160;20.910;2023-03-01T17:21:23;20.60;32.10
21171;DHT22;10743;52.160;20.910;2023-03-01T17:23:55;20.60;32.20
21171;DHT22;10743;52.160;20.910;2023-03-01T17:26:24;20.60;32.20
21171;DHT22;10743;52.160;20.910;2023-03-01T17:28:51;20.50;32.10
21171;DHT22;10743;52.160;20.910;2023-03-01T17:31:19;20.50;32.10
21171;DHT22;10743;52.160;20.910;2023-03-01T17:33:46;20.40;32.10
21171;DHT22;10743;52.160;20.910;2023-03-01T17:36:15;20.40;32.20
21171;DHT22;10743;52.160;20.910;2023-03-01T17:38:42;20.40;32.30
21171;DHT22;10743;52.160;20.910;2023-03-01T17:41:10;20.70;32.50
21171;DHT22;10743;52.160;20.910;2023-03-01T17:43:37;20.20;32.30
21171;DHT22;10743;52.160;20.910;2023-03-01T17:46:05;20.20;32.30